Time;durP1;ratioP1;P1;durP2;ratioP2;P2;SDS_P1;SDS_P2;PMS_P1;PMS_P2;Temp;Humidity;BMP_temperature;BMP_pressure;BME280_temperature;BME280_humidity;BME280_pressure;Samples;Min_cycle;Max_cycle;Signal;HPM_P1;HPM_P2
2022/11/21 00:00:21;;;;;;;50.30;22.13;;;;;;;7.31;71.65;100707.31;5011699;28;20118;-37
2022/11/21 00:02:47;;;;;;;43.42;21.30;;;;;;;7.45;71.31;100699.84;5011658;28;20018;-40
2022/11/21 00:05:12;;;;;;;43.17;21.27;;;;;;;7.47;71.14;100693.84;5011626;28;20030;-40
2022/11/21 00:07:38;;;;;;;40.88;20.88;;;;;;;7.50;71.06;100688.72;5011919;28;20044;-42
2022/11/21 00:10:03;;;;;;;46.78;21.50;;;;;;;7.53;70.83;100688.81;5011169;28;20077;-45
2022/11/21 00:12:29;;;;;;;43.13;20.92;;;;;;;7.57;70.91;100694.94;5011385;28;20486;-40
2022/11/21 00:14:54;;;;;;;42.30;20.05;;;;;;;7.56;70.61;100694.06;5011620;28;20089;-39
2022/11/21 00:17:19;;;;;;;41.90;20.50;;;;;;;7.43;71.03;100691.16;5010645;28;20022;-41
2022/11/21 00:19:45;;;;;;;43.17;21.08;;;;;;;7.45;70.87;100689.47;5009757;28;20026;-39
2022/11/21 00:22:10;;;;;;;40.08;20.52;;;;;;;7.56;70.72;100683.69;5011228;28;20040;-43
2022/11/21 00:24:35;;;;;;;35.05;19.27;;;;;;;7.53;70.72;100677.56;5011311;28;20029;-39
2022/11/21 00:27:01;;;;;;;40.95;20.00;;;;;;;7.40;70.81;100689.38;5011024;28;20452;-40
2022/11/21 00:29:27;;;;;;;38.05;20.55;;;;;;;7.54;70.96;100685.38;5011004;28;20423;-39
2022/11/21 00:31:52;;;;;;;39.90;20.20;;;;;;;7.53;71.03;100698.31;5011133;28;20022;-39
2022/11/21 00:34:18;;;;;;;44.22;21.00;;;;;;;7.20;71.96;100699.25;5011418;28;20156;-39
2022/11/21 00:36:43;;;;;;;38.83;20.17;;;;;;;7.18;72.16;100702.69;5010886;28;20104;-39
2022/11/21 00:39:08;;;;;;;48.00;22.67;;;;;;;6.95;72.71;100696.06;5010770;28;20422;-41
2022/11/21 00:41:33;;;;;;;44.80;22.05;;;;;;;7.04;72.41;100704.03;5010546;28;20402;-39
2022/11/21 00:43:59;;;;;;;52.92;23.25;;;;;;;7.32;72.09;100704.75;5010901;28;20033;-39
2022/11/21 00:46:24;;;;;;;47.72;22.48;;;;;;;7.06;72.40;100695.47;5011087;28;20026;-40
2022/11/21 00:48:49;;;;;;;94.65;25.00;;;;;;;7.08;72.84;100703.28;5011145;28;20022;-41
2022/11/21 00:51:15;;;;;;;50.63;23.27;;;;;;;7.33;71.95;100697.84;5010584;28;20057;-41
2022/11/21 00:53:41;;;;;;;56.72;23.48;;;;;;;7.27;71.57;100695.09;5010515;28;20028;-40
2022/11/21 00:56:06;;;;;;;55.72;24.63;;;;;;;7.03;72.55;100694.50;5010825;28;20109;-40
2022/11/21 00:58:31;;;;;;;58.42;23.42;;;;;;;7.28;71.48;100692.56;5010738;28;20605;-40
2022/11/21 01:01:10;;;;;;;60.03;24.35;;;;;;;6.96;72.38;100688.28;5010748;28;20021;-40
2022/11/21 01:03:35;;;;;;;58.13;24.50;;;;;;;7.37;71.06;100672.88;5010783;28;20540;-40
2022/11/21 01:06:05;;;;;;;63.50;24.15;;;;;;;7.44;71.05;100670.44;5009688;28;20030;-38
2022/11/21 01:08:33;;;;;;;84.68;24.85;;;;;;;7.00;71.45;100681.50;5011230;28;20585;-41
2022/11/21 01:11:05;;;;;;;60.00;24.30;;;;;;;7.10;72.06;100684.34;5009675;28;20026;-39
2022/11/21 01:13:30;;;;;;;63.92;25.10;;;;;;;7.35;71.54;100688.41;5010986;28;20029;-39
2022/11/21 01:15:56;;;;;;;55.10;23.85;;;;;;;7.49;71.12;100681.81;5011112;28;20029;-41
2022/11/21 01:18:21;;;;;;;57.35;24.15;;;;;;;7.27;71.20;100685.63;5011266;28;20026;-41
2022/11/21 01:20:46;;;;;;;53.70;23.75;;;;;;;7.19;71.99;100681.09;5010922;28;20032;-44
2022/11/21 01:23:11;;;;;;;58.15;24.52;;;;;;;7.26;71.64;100686.44;5011142;28;20034;-39
2022/11/21 01:25:37;;;;;;;56.67;24.05;;;;;;;7.38;71.20;100664.25;5011200;28;20032;-39
2022/11/21 01:28:02;;;;;;;54.10;23.58;;;;;;;7.48;70.71;100668.81;5010156;28;20497;-39
2022/11/21 01:30:27;;;;;;;53.40;23.65;;;;;;;7.28;71.55;100664.03;5011176;28;20463;-38
2022/11/21 01:32:53;;;;;;;54.95;23.42;;;;;;;7.53;70.72;100668.06;5010906;28;20136;-41
2022/11/21 01:35:18;;;;;;;53.42;22.83;;;;;;;7.40;70.77;100672.94;5010906;28;20040;-43
2022/11/21 01:37:48;;;;;;;56.53;24.00;;;;;;;7.46;71.10;100670.47;5010111;28;20041;-40
2022/11/21 01:40:14;;;;;;;51.88;22.80;;;;;;;7.36;70.85;100669.41;5010213;28;20079;-42
2022/11/21 01:43:02;;;;;;;51.78;23.90;;;;;;;7.48;70.67;100679.19;5010146;28;20033;-38
2022/11/21 01:45:57;;;;;;;50.72;22.35;;;;;;;7.50;70.71;100672.31;5010579;28;20030;-40
2022/11/21 01:49:03;;;;;;;53.63;23.42;;;;;;;7.52;70.86;100674.09;5010903;28;20021;-38
2022/11/21 01:51:40;;;;;;;;;;;;;;;7.43;70.74;100676.50;5009684;28;20041;-42
2022/11/21 01:54:18;;;;;;;46.35;20.40;;;;;;;7.54;70.62;100681.91;5010376;28;19913;-39
2022/11/21 01:57:09;;;;;;;55.13;23.48;;;;;;;7.54;70.35;100675.00;5010169;28;20456;-42
2022/11/21 01:59:37;;;;;;;47.40;20.70;;;;;;;7.53;70.71;100678.44;5000843;28;20488;-40
2022/11/21 02:02:05;;;;;;;52.28;23.15;;;;;;;7.43;70.82;100673.00;5009754;28;20415;-41
2022/11/21 02:04:32;;;;;;;54.38;23.27;;;;;;;7.43;70.68;100678.19;5010681;28;20373;-39
2022/11/21 02:07:02;;;;;;;51.33;22.60;;;;;;;7.43;70.45;100680.78;5010298;28;20109;-41
2022/11/21 02:09:30;;;;;;;50.90;22.55;;;;;;;7.50;70.69;100680.09;5010251;28;20014;-41
2022/11/21 02:12:04;;;;;;;56.63;23.45;;;;;;;7.27;71.02;100676.94;5010591;28;20021;-38
2022/11/21 02:14:30;;;;;;;55.78;23.42;;;;;;;7.42;70.79;100679.03;5011287;28;20090;-39
2022/11/21 02:16:59;;;;;;;58.78;24.50;;;;;;;7.42;70.79;100677.31;5011314;28;20368;-39
2022/11/21 02:19:37;;;;;;;56.25;23.75;;;;;;;7.44;70.76;100683.41;5011149;28;20076;-40
2022/11/21 02:22:24;;;;;;;51.03;22.90;;;;;;;7.51;70.84;100681.81;5010415;28;20025;-40
2022/11/21 02:25:10;;;;;;;55.90;22.92;;;;;;;7.45;70.46;100690.34;5010763;28;20339;-40
2022/11/21 02:27:36;;;;;;;51.30;22.00;;;;;;;7.50;70.59;100687.88;5009971;28;20029;-40
2022/11/21 02:30:02;;;;;;;51.75;21.73;;;;;;;7.55;70.42;100681.94;5010824;28;20100;-39
2022/11/21 02:32:34;;;;;;;55.60;22.63;;;;;;;7.56;70.62;100680.25;5010989;28;20490;-40
2022/11/21 02:35:01;;;;;;;58.97;23.55;;;;;;;7.29;71.48;100681.34;5010986;28;20137;-38
2022/11/21 02:37:28;;;;;;;51.58;21.50;;;;;;;7.47;70.88;100683.50;5010792;28;20116;-38
2022/11/21 02:39:56;;;;;;;55.55;23.48;;;;;;;7.48;70.56;100672.28;5011385;28;20113;-39
2022/11/21 02:42:33;;;;;;;54.42;23.42;;;;;;;7.28;71.17;100665.75;5013966;28;20084;-40
2022/11/21 02:45:17;;;;;;;57.50;24.35;;;;;;;7.43;71.00;100649.69;5013904;28;20108;-40
2022/11/21 02:47:44;;;;;;;63.55;25.33;;;;;;;7.26;70.94;100651.84;5013906;28;20525;-39
2022/11/21 02:50:18;;;;;;;58.88;24.05;;;;;;;7.48;70.42;100656.72;5013806;28;20037;-41
2022/11/21 02:52:44;;;;;;;57.00;23.63;;;;;;;7.60;70.11;100662.16;5016296;28;20441;-40
2022/11/21 02:55:10;;;;;;;53.50;23.02;;;;;;;7.62;70.39;100644.91;5017201;28;20030;-39
2022/11/21 02:57:37;;;;;;;53.85;23.80;;;;;;;7.17;71.39;100643.88;5015980;28;20056;-39
2022/11/21 03:00:03;;;;;;;54.63;22.95;;;;;;;7.47;70.83;100646.28;5014403;28;20509;-39
2022/11/21 03:02:28;;;;;;;55.30;22.60;;;;;;;7.52;70.57;100655.03;5013509;28;20061;-40
2022/11/21 03:04:53;;;;;;;54.13;22.90;;;;;;;7.54;70.74;100654.25;5013267;28;20087;-40
2022/11/21 03:07:19;;;;;;;53.65;23.05;;;;;;;7.46;70.64;100658.38;5012984;28;20037;-40
2022/11/21 03:09:44;;;;;;;52.65;22.70;;;;;;;7.54;70.74;100648.19;5013666;28;20037;-39
2022/11/21 03:12:10;;;;;;;51.03;22.38;;;;;;;7.49;71.02;100650.69;5013057;28;20029;-40
2022/11/21 03:14:35;;;;;;;46.38;21.40;;;;;;;7.63;70.57;100653.56;5013441;28;20050;-42
2022/11/21 03:17:02;;;;;;;47.42;21.70;;;;;;;7.52;70.72;100642.06;5012961;28;20026;-39
2022/11/21 03:19:27;;;;;;;51.35;21.70;;;;;;;7.62;70.32;100637.13;5012845;28;20434;-41
2022/11/21 03:21:52;;;;;;;49.33;22.00;;;;;;;7.59;70.35;100650.03;5012241;28;20076;-39
2022/11/21 03:24:18;;;;;;;46.45;21.52;;;;;;;7.59;70.43;100646.56;5012313;28;20033;-40
2022/11/21 03:26:43;;;;;;;49.25;21.88;;;;;;;7.61;70.72;100644.88;5012109;28;20029;-40
2022/11/21 03:29:08;;;;;;;50.88;21.98;;;;;;;7.71;70.28;100646.81;5012426;28;20021;-41
2022/11/21 03:31:34;;;;;;;56.28;22.25;;;;;;;7.50;71.02;100636.00;5012889;28;20112;-41
2022/11/21 03:33:59;;;;;;;47.15;21.88;;;;;;;7.67;70.27;100637.22;5012739;28;20084;-37
2022/11/21 03:36:24;;;;;;;48.88;22.23;;;;;;;7.66;70.50;100628.56;5034799;23;20034;-43
2022/11/21 03:38:50;;;;;;;63.45;23.27;;;;;;;7.67;70.34;100634.63;5012084;28;20048;-42
2022/11/21 03:41:30;;;;;;;59.15;22.70;;;;;;;7.48;71.09;100628.19;5011592;28;20032;-44
2022/11/21 03:44:06;;;;;;;54.78;22.35;;;;;;;7.47;71.45;100629.00;5012340;28;20037;-44
2022/11/21 03:46:34;;;;;;;55.17;21.85;;;;;;;7.59;71.21;100623.22;5012148;28;20079;-45
2022/11/21 03:49:00;;;;;;;68.18;22.45;;;;;;;7.62;70.97;100624.13;5012709;28;20108;-44
2022/11/21 03:51:25;;;;;;;55.60;22.70;;;;;;;7.55;71.25;100616.22;5012745;28;20276;-42
2022/11/21 03:53:51;;;;;;;54.53;21.02;;;;;;;7.66;71.21;100622.50;5013219;28;20022;-42
2022/11/21 03:56:16;;;;;;;101.50;21.90;;;;;;;7.72;70.39;100620.03;5011582;28;20038;-44
2022/11/21 03:58:42;;;;;;;46.65;20.77;;;;;;;7.69;70.77;100613.06;5011438;28;20032;-45
2022/11/21 04:01:07;;;;;;;48.22;20.80;;;;;;;7.64;70.85;100612.09;5012491;28;20065;-43
2022/11/21 04:03:33;;;;;;;40.15;19.27;;;;;;;7.53;71.25;100607.53;5014007;28;20038;-44
2022/11/21 04:05:59;;;;;;;47.67;20.50;;;;;;;7.67;70.33;100611.28;5013563;28;20097;-43
2022/11/21 04:08:26;;;;;;;42.08;19.80;;;;;;;7.24;71.39;100609.47;5011071;28;20037;-41
2022/11/21 04:10:53;;;;;;;37.22;19.48;;;;;;;7.28;71.32;100616.47;5011251;28;20061;-45
2022/11/21 04:13:19;;;;;;;47.15;20.10;;;;;;;7.19;72.03;100605.91;5011504;28;20034;-42
2022/11/21 04:15:45;;;;;;;38.33;18.92;;;;;;;7.44;71.23;100602.16;5011135;28;20026;-44
2022/11/21 04:18:11;;;;;;;37.92;17.85;;;;;;;7.43;70.68;100606.47;5011038;28;20522;-43
2022/11/21 04:20:37;;;;;;;35.75;18.67;;;;;;;7.47;70.99;100605.69;5011100;28;20037;-44
2022/11/21 04:23:02;;;;;;;37.90;18.50;;;;;;;7.24;71.35;100604.31;5011466;28;20406;-44
2022/11/21 04:25:28;;;;;;;37.13;18.20;;;;;;;7.32;71.13;100608.78;5011319;28;20026;-43
2022/11/21 04:27:58;;;;;;;48.45;18.95;;;;;;;6.96;72.15;100609.66;5011414;28;20109;-43
2022/11/21 04:30:24;;;;;;;44.75;18.63;;;;;;;6.84;72.79;100599.91;5010979;28;20132;-43
2022/11/21 04:32:53;;;;;;;47.97;18.92;;;;;;;6.86;72.40;100601.69;5011169;28;20493;-41
2022/11/21 04:35:19;;;;;;;42.00;19.15;;;;;;;7.23;71.55;100603.41;5011314;28;20029;-45
2022/11/21 04:37:44;;;;;;;41.95;19.08;;;;;;;7.37;70.81;100602.84;5013092;28;20478;-44
2022/11/21 04:40:11;;;;;;;59.33;18.77;;;;;;;7.31;71.21;100594.09;5018235;28;20033;-41
2022/11/21 04:42:36;;;;;;;44.30;18.52;;;;;;;7.19;71.61;100596.44;5020654;28;20080;-41
2022/11/21 04:45:01;;;;;;;45.65;17.83;;;;;;;6.73;72.44;100591.88;5014059;28;20026;-43
2022/11/21 04:47:27;;;;;;;38.50;17.83;;;;;;;7.01;71.59;100580.47;5011006;28;20057;-46
2022/11/21 04:49:52;;;;;;;74.75;18.80;;;;;;;6.57;72.89;100571.63;5011101;28;20057;-43
2022/11/21 04:52:17;;;;;;;48.33;17.60;;;;;;;6.83;72.33;100573.09;5010609;28;20072;-43
2022/11/21 04:54:42;;;;;;;42.33;18.05;;;;;;;7.04;71.33;100569.25;5011050;28;20470;-44
2022/11/21 04:57:08;;;;;;;44.30;16.98;;;;;;;6.78;72.13;100572.13;5010750;28;20037;-43
2022/11/21 04:59:33;;;;;;;39.03;17.92;;;;;;;7.07;71.63;100578.00;5010726;28;20033;-41
2022/11/21 05:01:58;;;;;;;39.25;17.48;;;;;;;7.14;71.22;100572.09;5010674;28;20022;-44
2022/11/21 05:04:24;;;;;;;47.72;17.77;;;;;;;7.16;70.81;100564.34;5010651;28;20431;-43
2022/11/21 05:06:49;;;;;;;52.83;18.08;;;;;;;6.53;72.81;100560.28;5010263;28;20364;-41
2022/11/21 05:09:14;;;;;;;36.58;17.67;;;;;;;6.87;72.21;100558.53;5010710;28;20109;-44
2022/11/21 05:14:25;;;;;;;46.58;18.98;;;;;;;6.89;71.86;100556.84;5010763;28;20091;-44
2022/11/21 05:16:53;;;;;;;31.92;17.08;;;;;;;7.21;70.88;100565.31;5010738;28;20463;-43
2022/11/21 05:19:18;;;;;;;37.50;17.38;;;;;;;7.26;70.56;100558.50;5011120;28;20026;-46
2022/11/21 05:21:44;;;;;;;35.00;17.38;;;;;;;7.21;71.25;100555.84;5012358;28;20037;-43
2022/11/21 05:24:09;;;;;;;40.35;17.50;;;;;;;7.28;70.95;100549.06;5012825;28;20021;-41
2022/11/21 05:26:35;;;;;;;35.03;17.10;;;;;;;7.39;70.68;100539.78;5019465;28;20026;-44
2022/11/21 05:29:00;;;;;;;41.88;17.55;;;;;;;7.17;71.44;100542.78;5019772;28;20538;-42
2022/11/21 05:31:25;;;;;;;47.20;17.52;;;;;;;6.72;71.97;100538.31;5014011;28;20032;-42
2022/11/21 05:33:51;;;;;;;53.13;17.63;;;;;;;6.57;72.15;100537.06;5011433;28;20026;-42
2022/11/21 05:36:16;;;;;;;33.92;17.35;;;;;;;6.98;70.99;100532.84;5010935;28;20457;-43
2022/11/21 05:38:41;;;;;;;39.08;17.80;;;;;;;6.64;71.87;100523.44;5011788;28;20030;-42
2022/11/21 05:41:07;;;;;;;37.90;17.40;;;;;;;6.55;72.49;100524.09;5011232;28;20037;-42
2022/11/21 05:43:47;;;;;;;38.53;17.40;;;;;;;6.51;72.22;100520.56;5010243;28;20032;-42
2022/11/21 05:46:18;;;;;;;41.67;16.67;;;;;;;6.85;71.49;100516.13;5010445;28;20032;-44
2022/11/21 05:48:45;;;;;;;32.42;17.10;;;;;;;6.77;71.51;100515.13;5010086;28;20073;-44
2022/11/21 05:51:10;;;;;;;32.55;17.60;;;;;;;6.43;71.89;100511.72;5009787;28;20026;-46
2022/11/21 05:53:36;;;;;;;31.20;17.13;;;;;;;6.25;73.04;100511.28;5010070;28;20022;-44
2022/11/21 05:56:07;;;;;;;41.38;17.15;;;;;;;6.50;71.94;100510.16;5010011;28;20032;-42
2022/11/21 05:58:33;;;;;;;40.60;17.00;;;;;;;6.33;72.07;100511.47;5009894;28;20030;-45
2022/11/21 06:00:59;;;;;;;47.03;16.77;;;;;;;6.59;71.81;100514.69;5009683;28;20075;-42
2022/11/21 06:03:26;;;;;;;43.15;17.05;;;;;;;6.60;71.63;100498.28;5009972;28;20105;-42
2022/11/21 06:06:07;;;;;;;36.35;16.90;;;;;;;6.56;71.50;100499.06;5010181;28;20053;-45
2022/11/21 06:08:35;;;;;;;33.85;16.48;;;;;;;6.85;70.82;100492.81;5009894;28;20030;-41
2022/11/21 06:11:01;;;;;;;32.20;16.38;;;;;;;6.89;70.54;100494.66;5009585;28;20395;-44
2022/11/21 06:13:27;;;;;;;31.48;16.95;;;;;;;6.97;70.13;100490.50;5009965;28;20434;-43
2022/11/21 06:16:01;;;;;;;36.67;17.90;;;;;;;6.68;71.84;100500.22;5012997;28;20025;-44
2022/11/21 06:18:28;;;;;;;47.95;18.25;;;;;;;6.87;71.52;100505.00;5013926;28;20490;-45
2022/11/21 06:20:59;;;;;;;67.25;18.83;;;;;;;6.63;72.20;100504.44;5013511;28;20041;-43
2022/11/21 06:23:24;;;;;;;49.22;18.45;;;;;;;6.86;71.69;100494.56;5017190;28;20036;-44
2022/11/21 06:25:56;;;;;;;32.90;17.23;;;;;;;7.14;71.13;100491.72;5019480;28;20045;-44
2022/11/21 06:28:21;;;;;;;34.17;17.15;;;;;;;7.24;70.59;100482.44;5027522;28;20025;-43
2022/11/21 06:30:50;;;;;;;29.38;16.65;;;;;;;7.29;70.59;100468.72;5022531;28;20028;-43
2022/11/21 06:33:16;;;;;;;29.08;16.02;;;;;;;7.28;70.78;100469.56;5013747;28;20033;-41
2022/11/21 06:35:42;;;;;;;34.17;15.75;;;;;;;7.18;71.37;100461.56;5013974;28;20030;-43
2022/11/21 06:38:07;;;;;;;34.92;16.63;;;;;;;7.23;70.67;100471.19;5013992;28;20034;-43
2022/11/21 06:40:33;;;;;;;27.25;15.35;;;;;;;7.21;71.04;100456.44;5013372;28;20053;-45
2022/11/21 06:42:58;;;;;;;29.83;15.93;;;;;;;7.18;71.38;100452.09;5014200;28;20537;-43
2022/11/21 06:45:24;;;;;;;30.45;16.10;;;;;;;7.22;71.70;100463.38;5019121;28;20561;-43
2022/11/21 06:47:49;;;;;;;26.42;16.00;;;;;;;7.35;71.20;100457.59;5018727;28;20026;-42
2022/11/21 06:50:14;;;;;;;30.17;15.75;;;;;;;7.23;71.45;100453.03;5017114;28;20068;-48
2022/11/21 06:52:40;;;;;;;26.50;14.95;;;;;;;7.32;71.53;100435.06;5018612;28;20075;-44
2022/11/21 06:55:06;;;;;;;28.50;15.55;;;;;;;7.32;71.36;100423.81;5018274;28;20104;-43
2022/11/21 06:57:31;;;;;;;29.60;16.42;;;;;;;7.09;72.10;100432.84;5014700;28;20025;-43
2022/11/21 06:59:57;;;;;;;31.33;16.98;;;;;;;7.21;71.40;100433.97;5012612;28;20042;-44
2022/11/21 07:02:22;;;;;;;33.92;17.20;;;;;;;7.24;71.50;100433.19;5012309;28;20430;-47
2022/11/21 07:04:47;;;;;;;30.60;16.98;;;;;;;7.27;71.07;100431.50;5012382;28;20156;-44
2022/11/21 07:07:13;;;;;;;31.27;15.93;;;;;;;6.91;71.75;100431.66;5012308;28;20082;-43
2022/11/21 07:09:38;;;;;;;29.05;16.48;;;;;;;6.85;72.24;100425.47;5012326;28;20482;-40
2022/11/21 07:14:49;;;;;;;28.25;15.30;;;;;;;7.16;69.98;100439.91;5012755;28;20044;-42
2022/11/21 07:17:14;;;;;;;31.88;16.15;;;;;;;7.19;70.03;100438.28;5012226;28;20112;-41
2022/11/21 07:19:40;;;;;;;29.60;16.63;;;;;;;7.14;70.26;100437.28;5012463;28;20113;-42
2022/11/21 07:22:07;;;;;;;27.35;15.25;;;;;;;7.15;69.89;100439.03;5012068;28;20029;-48
2022/11/21 07:24:32;;;;;;;33.30;16.90;;;;;;;7.14;70.09;100434.69;5012358;28;20029;-43
2022/11/21 07:26:57;;;;;;;30.58;15.23;;;;;;;7.15;70.21;100433.84;5010940;28;20033;-43
2022/11/21 07:29:23;;;;;;;33.28;16.65;;;;;;;7.16;70.57;100433.03;5012203;28;20375;-45
2022/11/21 07:31:48;;;;;;;34.50;17.08;;;;;;;7.19;71.00;100422.72;5008848;28;20036;-43
2022/11/21 07:34:13;;;;;;;36.50;17.30;;;;;;;7.11;70.63;100432.06;5011998;28;20388;-46
2022/11/21 07:36:39;;;;;;;37.72;18.27;;;;;;;7.11;71.36;100426.88;5012539;28;20117;-43
2022/11/21 07:39:05;;;;;;;38.25;17.90;;;;;;;7.27;71.40;100433.22;5012186;28;20024;-43
2022/11/21 07:41:30;;;;;;;33.25;16.90;;;;;;;7.54;71.02;100435.47;5011671;28;20478;-43
2022/11/21 07:43:56;;;;;;;36.78;17.15;;;;;;;7.53;71.08;100436.31;5013318;28;20197;-43
2022/11/21 07:46:21;;;;;;;32.17;16.45;;;;;;;7.51;70.97;100438.88;5013876;28;20565;-39
2022/11/21 07:48:46;;;;;;;30.55;15.88;;;;;;;7.57;70.84;100428.63;5013660;28;20029;-47
2022/11/21 07:51:11;;;;;;;35.60;16.10;;;;;;;7.61;71.23;100421.78;5011565;28;20018;-43
2022/11/21 07:53:37;;;;;;;37.53;16.60;;;;;;;7.67;71.27;100422.78;5014112;28;20478;-42
2022/11/21 07:56:03;;;;;;;39.45;16.73;;;;;;;7.70;70.92;100419.34;5015084;28;20100;-42
2022/11/21 07:58:29;;;;;;;34.28;16.13;;;;;;;7.75;70.48;100415.97;5014505;28;20022;-40
2022/11/21 08:00:54;;;;;;;34.47;15.27;;;;;;;7.77;71.04;100413.41;5011995;28;20030;-44
2022/11/21 08:03:19;;;;;;;34.22;16.25;;;;;;;7.84;70.71;100411.78;5011595;28;20026;-40
2022/11/21 08:05:45;;;;;;;42.90;16.63;;;;;;;7.84;70.52;100404.88;5011361;28;20447;-42
2022/11/21 08:08:11;;;;;;;35.85;14.95;;;;;;;7.80;70.56;100404.81;5011374;28;20022;-43
2022/11/21 08:10:46;;;;;;;30.88;14.50;;;;;;;7.81;70.57;100397.03;5011534;28;20021;-43
2022/11/21 08:13:12;;;;;;;31.45;14.90;;;;;;;7.80;70.86;100395.31;5011683;28;20461;-46
2022/11/21 08:15:38;;;;;;;28.45;14.18;;;;;;;7.83;70.71;100384.09;5020940;28;20049;-43
2022/11/21 08:18:12;;;;;;;25.90;13.70;;;;;;;7.84;70.53;100384.13;5024357;28;20432;-42
2022/11/21 08:20:38;;;;;;;23.88;12.68;;;;;;;7.85;70.33;100380.69;5011543;28;20029;-45
2022/11/21 08:23:04;;;;;;;26.92;13.43;;;;;;;7.90;70.59;100373.84;5012238;28;20033;-44
2022/11/21 08:25:30;;;;;;;29.58;14.15;;;;;;;7.85;70.58;100374.63;5011786;28;20122;-44
2022/11/21 08:27:56;;;;;;;25.35;13.57;;;;;;;7.88;70.52;100380.72;5012331;28;20100;-41
2022/11/21 08:30:21;;;;;;;28.17;14.00;;;;;;;8.00;70.93;100369.66;5011126;28;20125;-43
2022/11/21 08:32:47;;;;;;;30.90;14.25;;;;;;;8.02;70.52;100374.03;5010927;28;20502;-44
2022/11/21 08:35:12;;;;;;;25.83;13.70;;;;;;;8.13;70.70;100374.19;5011852;28;20022;-44
2022/11/21 08:37:37;;;;;;;28.15;13.50;;;;;;;8.19;70.81;100361.31;5010932;28;20022;-45
2022/11/21 08:40:03;;;;;;;29.33;13.88;;;;;;;8.21;71.02;100354.41;5011053;28;20402;-42
2022/11/21 08:42:28;;;;;;;31.77;13.65;;;;;;;8.28;71.04;100352.78;5010538;28;20037;-44
2022/11/21 08:44:54;;;;;;;26.75;13.48;;;;;;;8.39;71.12;100357.31;5010508;28;20040;-44
2022/11/21 08:47:19;;;;;;;25.50;13.10;;;;;;;8.50;71.29;100347.06;5010706;28;20034;-42
2022/11/21 08:49:44;;;;;;;24.70;12.43;;;;;;;8.59;71.44;100356.72;5010437;28;20064;-43
2022/11/21 08:52:10;;;;;;;23.55;12.18;;;;;;;8.61;71.37;100340.25;5010396;28;20029;-43
2022/11/21 08:54:35;;;;;;;25.02;12.93;;;;;;;8.68;71.63;100338.63;5010449;28;20101;-43
2022/11/21 08:57:00;;;;;;;27.40;12.45;;;;;;;8.80;71.40;100342.25;5010343;28;20030;-44
2022/11/21 08:59:26;;;;;;;26.70;12.38;;;;;;;8.81;71.99;100340.53;5010400;28;20510;-44
2022/11/21 09:01:51;;;;;;;21.80;11.27;;;;;;;8.98;71.55;100344.19;5010300;28;20357;-42
2022/11/21 09:04:17;;;;;;;23.50;11.23;;;;;;;9.07;71.79;100338.22;5010539;28;20057;-45
2022/11/21 09:06:42;;;;;;;22.58;12.05;;;;;;;9.06;71.71;100339.94;5010191;28;20402;-43
2022/11/21 09:09:08;;;;;;;23.38;11.65;;;;;;;8.98;71.73;100335.50;5010695;28;20021;-43
2022/11/21 09:11:35;;;;;;;21.73;12.05;;;;;;;9.08;71.88;100329.56;5009831;28;20033;-43
2022/11/21 09:19:28;;;;;;;19.15;10.20;;;;;;;9.25;71.51;100305.47;5010297;28;20084;-43
2022/11/21 09:21:54;;;;;;;22.40;10.48;;;;;;;9.28;71.48;100309.81;5009605;28;20033;-44
2022/11/21 09:24:19;;;;;;;21.80;10.82;;;;;;;9.26;72.06;100316.75;5010528;28;20478;-39
2022/11/21 09:26:44;;;;;;;21.05;10.75;;;;;;;9.34;71.42;100315.94;5010192;28;20030;-43
2022/11/21 09:29:10;;;;;;;19.48;10.55;;;;;;;9.44;71.50;100308.25;5010135;28;20075;-43
2022/11/21 09:31:36;;;;;;;21.17;10.27;;;;;;;9.43;71.03;100298.69;5009870;28;20030;-44
2022/11/21 09:34:02;;;;;;;22.42;10.18;;;;;;;9.49;71.25;100298.75;5010018;28;20057;-42
2022/11/21 09:36:27;;;;;;;22.13;10.55;;;;;;;9.42;71.04;100300.41;5009740;28;20069;-47
2022/11/21 09:38:53;;;;;;;18.10;9.88;;;;;;;9.50;71.15;100296.16;5065215;23;20041;-48
2022/11/21 09:44:35;;;;;;;20.42;9.75;;;;;;;9.63;71.48;100291.94;5050920;28;20070;-45
2022/11/21 09:47:28;;;;;;;17.92;9.35;;;;;;;9.72;71.31;100286.78;5049990;28;20114;-45
2022/11/21 09:50:21;;;;;;;21.55;10.02;;;;;;;9.74;71.33;100287.69;5051181;28;20021;-46
2022/11/21 09:52:59;;;;;;;19.55;9.40;;;;;;;9.76;71.74;100285.94;5054073;28;20405;-43
2022/11/21 09:55:33;;;;;;;23.05;9.50;;;;;;;9.87;71.46;100275.63;5054541;28;20017;-44
2022/11/21 09:58:05;;;;;;;14.88;8.15;;;;;;;10.02;71.94;100271.38;5054409;28;20473;-48
2022/11/21 10:00:31;;;;;;;18.23;8.13;;;;;;;10.14;72.07;100268.81;5053947;28;20029;-44
2022/11/21 10:02:58;;;;;;;15.55;7.65;;;;;;;10.23;72.43;100272.38;5055140;28;20086;-44
2022/11/21 10:05:38;;;;;;;19.42;7.63;;;;;;;10.37;72.44;100274.19;5054757;28;20024;-46
2022/11/21 10:08:48;;;;;;;30.23;7.22;;;;;;;10.32;72.05;100265.47;5053728;28;20078;-46
2022/11/21 10:11:28;;;;;;;16.45;6.10;;;;;;;10.45;72.56;100269.88;5053822;28;20075;-45
2022/11/21 10:14:09;;;;;;;17.42;6.15;;;;;;;10.58;72.07;100256.03;5055189;28;20029;-49
2022/11/21 10:16:48;;;;;;;18.05;6.53;;;;;;;10.59;71.93;100256.91;5054996;28;20098;-45
2022/11/21 10:19:21;;;;;;;14.02;5.80;;;;;;;10.67;71.84;100251.72;5054089;28;20027;-44
2022/11/21 10:22:13;;;;;;;16.52;6.43;;;;;;;10.80;71.83;100253.47;5054928;28;20112;-45
2022/11/21 10:25:02;;;;;;;13.88;5.78;;;;;;;10.93;71.85;100250.03;5054426;28;20368;-45
2022/11/21 10:27:36;;;;;;;11.23;5.97;;;;;;;10.76;71.81;100239.56;5053168;28;20037;-48
2022/11/21 10:30:05;;;;;;;18.73;6.47;;;;;;;11.01;71.63;100242.22;5053832;28;20021;-46
2022/11/21 10:32:38;;;;;;;12.95;5.95;;;;;;;11.03;71.80;100236.16;5052832;28;20252;-46
2022/11/21 10:35:23;;;;;;;12.38;5.97;;;;;;;11.07;71.85;100227.47;5053115;28;20501;-45
2022/11/21 10:37:53;;;;;;;16.48;6.10;;;;;;;11.18;71.14;100222.25;5053175;28;20021;-47
2022/11/21 10:40:35;;;;;;;12.73;5.88;;;;;;;11.14;71.68;100224.00;5052615;28;20024;-50
2022/11/21 10:46:02;;;;;;;13.35;6.13;;;;;;;10.88;71.21;100215.25;5053288;28;20043;-50
2022/11/21 10:48:28;;;;;;;15.45;5.80;;;;;;;11.16;70.93;100221.41;5052892;28;20025;-46
2022/11/21 10:51:17;;;;;;;11.73;5.93;;;;;;;11.18;70.46;100214.41;5052534;28;20099;-45
2022/11/21 10:56:27;;;;;;;14.87;6.37;;;;;;;11.12;70.56;100211.81;5053783;28;20032;-50
2022/11/21 10:58:58;;;;;;;15.50;6.10;;;;;;;11.03;70.50;100199.66;5053670;28;20271;-45
2022/11/21 11:01:29;;;;;;;14.98;6.40;;;;;;;11.37;70.67;100190.06;5052621;28;20280;-47
2022/11/21 11:04:16;;;;;;;14.00;5.97;;;;;;;11.33;70.18;100199.66;5052521;28;20036;-45
2022/11/21 11:06:44;;;;;;;15.40;6.68;;;;;;;11.57;70.31;100195.28;5052277;28;20071;-46
2022/11/21 11:09:33;;;;;;;13.60;6.35;;;;;;;11.55;68.86;100195.25;5052187;28;20036;-46
2022/11/21 11:12:22;;;;;;;15.20;6.78;;;;;;;11.75;69.33;100183.09;5046479;28;20405;-46
2022/11/21 11:14:55;;;;;;;16.30;6.68;;;;;;;11.74;69.42;100180.47;5052996;28;20481;-47
2022/11/21 11:17:30;;;;;;;14.13;6.43;;;;;;;11.93;69.12;100176.06;5052461;28;20017;-48
2022/11/21 11:20:01;;;;;;;16.13;6.47;;;;;;;11.75;68.17;100167.41;5052222;28;20492;-47
2022/11/21 11:22:29;;;;;;;13.73;6.40;;;;;;;11.87;68.40;100160.41;5052211;28;20117;-48
2022/11/21 11:24:54;;;;;;;17.92;5.60;;;;;;;11.22;67.96;100159.63;5053480;28;20509;-47
2022/11/21 11:27:26;;;;;;;16.00;6.28;;;;;;;11.35;68.32;100150.91;5052652;28;20049;-43
2022/11/21 11:29:52;;;;;;;14.07;5.72;;;;;;;11.38;67.53;100145.72;5054784;28;20075;-50
2022/11/21 11:32:18;;;;;;;15.18;5.70;;;;;;;11.23;67.40;100147.44;5061660;28;20033;-49
2022/11/21 11:35:00;;;;;;;19.15;6.10;;;;;;;11.34;67.01;100135.28;5059025;28;20028;-48
2022/11/21 11:37:37;;;;;;;15.20;6.30;;;;;;;11.11;67.67;100131.81;5053082;28;20032;-45
2022/11/21 11:40:14;;;;;;;13.75;6.00;;;;;;;11.39;67.75;100123.97;5050434;28;20508;-46
2022/11/21 11:49:00;;;;;;;13.48;5.38;;;;;;;11.44;66.59;100103.06;5051448;28;20508;-49